Time;durP1;ratioP1;P1;durP2;ratioP2;P2;SDS_P1;SDS_P2;PMS_P1;PMS_P2;Temp;Humidity;BMP_temperature;BMP_pressure;BME280_temperature;BME280_humidity;BME280_pressure;Samples;Min_cycle;Max_cycle;Signal;HPM_P1;HPM_P2
2021/07/04 00:01:57;;;;;;;2.50;2.33;;;;;;;;;;5114547;28;20853;-82
2021/07/04 00:04:25;;;;;;;2.90;2.05;;;;;;;;;;5114435;28;20210;-83
2021/07/04 00:06:53;;;;;;;2.30;2.17;;;;;;;;;;5114165;28;20184;-82
2021/07/04 00:09:21;;;;;;;2.08;1.98;;;;;;;;;;5114177;28;20207;-83
2021/07/04 00:11:49;;;;;;;1.90;1.80;;;;;;;;;;5113813;28;20219;-83
2021/07/04 00:14:18;;;;;;;1.73;1.63;;;;;;;;;;5113882;28;20227;-83
2021/07/04 00:16:46;;;;;;;1.98;1.88;;;;;;;;;;5113235;28;20204;-83
2021/07/04 00:19:14;;;;;;;2.20;2.00;;;;;;;;;;5113489;28;20184;-83
2021/07/04 00:21:42;;;;;;;2.53;1.83;;;;;;;;;;5112970;28;20232;-84
2021/07/04 00:24:09;;;;;;;2.17;2.05;;;;;;;;;;5113991;28;20196;-83
2021/07/04 00:26:37;;;;;;;2.05;1.95;;;;;;;;;;5114249;28;20202;-83
2021/07/04 00:29:05;;;;;;;2.40;2.20;;;;;;;;;;5114204;28;20198;-84
2021/07/04 00:31:34;;;;;;;2.00;1.90;;;;;;;;;;5114347;28;20220;-82
2021/07/04 00:34:02;;;;;;;2.70;2.50;;;;;;;;;;5114213;28;20191;-83
2021/07/04 00:36:29;;;;;;;2.47;2.28;;;;;;;;;;5114675;28;20188;-83
2021/07/04 00:38:57;;;;;;;2.13;1.98;;;;;;;;;;5115023;28;20623;-83
2021/07/04 00:41:25;;;;;;;2.65;2.45;;;;;;;;;;5114059;28;20709;-83
2021/07/04 00:43:52;;;;;;;2.60;2.40;;;;;;;;;;5114031;28;20230;-83
2021/07/04 00:46:19;;;;;;;2.70;2.50;;;;;;;;;;5114283;28;20669;-83
2021/07/04 00:48:48;;;;;;;2.80;2.60;;;;;;;;;;5113929;28;20196;-82
2021/07/04 00:51:16;;;;;;;4.38;3.00;;;;;;;;;;5113279;28;20216;-83
2021/07/04 00:53:43;;;;;;;3.03;2.83;;;;;;;;;;5112650;28;20204;-82
2021/07/04 00:56:11;;;;;;;3.33;3.03;;;;;;;;;;5112713;28;20291;-83
2021/07/04 00:58:38;;;;;;;3.03;2.72;;;;;;;;;;5112959;28;20203;-82
2021/07/04 01:01:05;;;;;;;2.70;2.50;;;;;;;;;;5112441;28;20238;-83
2021/07/04 01:03:33;;;;;;;2.70;2.50;;;;;;;;;;5113653;28;20196;-83
2021/07/04 01:06:02;;;;;;;3.67;3.38;;;;;;;;;;5113837;28;20196;-84
2021/07/04 01:08:29;;;;;;;3.13;2.40;;;;;;;;;;5113731;28;20199;-83
2021/07/04 01:10:57;;;;;;;3.00;2.80;;;;;;;;;;5113489;28;20211;-82
2021/07/04 01:13:24;;;;;;;2.95;2.75;;;;;;;;;;5113783;28;20188;-83
2021/07/04 01:15:52;;;;;;;2.70;2.50;;;;;;;;;;5113024;28;20582;-83
2021/07/04 01:18:20;;;;;;;2.45;2.25;;;;;;;;;;5117281;28;20287;-83
2021/07/04 01:20:48;;;;;;;2.60;2.40;;;;;;;;;;5117847;28;20223;-82
2021/07/04 01:23:18;;;;;;;2.92;2.67;;;;;;;;;;5118024;28;20200;-83
2021/07/04 01:25:49;;;;;;;2.70;2.50;;;;;;;;;;5118555;28;20180;-84
2021/07/04 01:28:18;;;;;;;3.33;3.03;;;;;;;;;;5118934;28;20664;-83
2021/07/04 01:30:54;;;;;;;2.30;2.10;;;;;;;;;;5119025;28;20659;-83
2021/07/04 01:33:22;;;;;;;2.13;2.00;;;;;;;;;;5118584;28;20653;-83
2021/07/04 01:35:49;;;;;;;1.83;1.73;;;;;;;;;;5117336;28;20649;-83
2021/07/04 01:38:18;;;;;;;1.60;1.50;;;;;;;;;;5117126;28;20210;-83
2021/07/04 01:40:46;;;;;;;1.50;1.40;;;;;;;;;;5116901;28;20234;-84
2021/07/04 01:43:14;;;;;;;1.42;1.33;;;;;;;;;;5118071;28;20203;-84
2021/07/04 01:45:42;;;;;;;1.27;1.20;;;;;;;;;;5119539;28;20665;-84
2021/07/04 01:48:10;;;;;;;1.17;1.17;;;;;;;;;;5119666;28;20202;-84
2021/07/04 01:50:45;;;;;;;1.73;1.63;;;;;;;;;;5118746;28;20219;-84
2021/07/04 01:53:12;;;;;;;1.88;1.77;;;;;;;;;;5117942;28;20890;-83
2021/07/04 01:55:41;;;;;;;2.53;2.33;;;;;;;;;;5117013;28;20200;-83
2021/07/04 01:58:08;;;;;;;2.17;2.08;;;;;;;;;;5117714;28;20180;-83
2021/07/04 02:00:38;;;;;;;2.42;2.22;;;;;;;;;;5117312;28;20223;-83
2021/07/04 02:03:08;;;;;;;1.80;1.70;;;;;;;;;;5117403;28;20195;-84
2021/07/04 02:05:37;;;;;;;1.77;1.67;;;;;;;;;;5117791;28;20240;-83
2021/07/04 02:08:05;;;;;;;1.83;1.73;;;;;;;;;;5118459;28;20184;-84
2021/07/04 02:10:35;;;;;;;1.67;1.58;;;;;;;;;;5117587;28;20199;-84
2021/07/04 02:13:06;;;;;;;1.77;1.67;;;;;;;;;;5117553;28;20183;-82
2021/07/04 02:15:35;;;;;;;1.75;1.65;;;;;;;;;;5117937;28;20661;-84
2021/07/04 02:18:06;;;;;;;2.10;2.00;;;;;;;;;;5118535;28;20184;-84
2021/07/04 02:20:38;;;;;;;2.17;2.08;;;;;;;;;;5118128;28;20318;-83
2021/07/04 02:23:09;;;;;;;2.42;1.90;;;;;;;;;;5118441;28;20235;-83
2021/07/04 02:25:37;;;;;;;1.60;1.50;;;;;;;;;;5118056;28;20534;-82
2021/07/04 02:28:07;;;;;;;1.65;1.55;;;;;;;;;;5117314;28;20188;-84
2021/07/04 02:30:36;;;;;;;1.40;1.30;;;;;;;;;;5117524;28;20215;-84
2021/07/04 02:33:06;;;;;;;1.50;1.40;;;;;;;;;;5117692;28;20180;-83
2021/07/04 02:35:36;;;;;;;1.50;1.40;;;;;;;;;;5117529;28;20554;-83
2021/07/04 02:38:04;;;;;;;1.20;1.20;;;;;;;;;;5117360;28;20176;-82
2021/07/04 02:40:32;;;;;;;1.90;1.80;;;;;;;;;;5116478;28;20180;-83
2021/07/04 02:43:00;;;;;;;2.03;1.92;;;;;;;;;;5116061;28;20195;-83
2021/07/04 02:45:30;;;;;;;1.30;1.20;;;;;;;;;;5116045;28;20180;-83
2021/07/04 02:47:57;;;;;;;1.60;1.50;;;;;;;;;;5115773;28;20188;-83
2021/07/04 02:50:25;;;;;;;1.65;1.55;;;;;;;;;;5116389;28;20204;-83
2021/07/04 02:52:54;;;;;;;1.60;1.50;;;;;;;;;;5116352;28;20180;-84
2021/07/04 02:55:23;;;;;;;1.75;1.65;;;;;;;;;;5117267;28;20184;-84
2021/07/04 02:57:52;;;;;;;1.23;1.23;;;;;;;;;;5116404;28;20644;-84
2021/07/04 03:00:22;;;;;;;1.25;1.25;;;;;;;;;;5114500;28;20661;-83
2021/07/04 03:02:51;;;;;;;1.20;1.20;;;;;;;;;;5115409;28;20569;-83
2021/07/04 03:05:19;;;;;;;1.85;1.75;;;;;;;;;;5116534;28;20202;-82
2021/07/04 03:07:47;;;;;;;1.20;1.20;;;;;;;;;;5115916;28;20191;-83
2021/07/04 03:10:16;;;;;;;1.42;1.33;;;;;;;;;;5115913;28;20180;-83
2021/07/04 03:12:44;;;;;;;1.48;1.38;;;;;;;;;;5115411;28;20184;-83
2021/07/04 03:15:14;;;;;;;1.60;1.50;;;;;;;;;;5115860;28;20184;-83
2021/07/04 03:17:41;;;;;;;1.80;1.70;;;;;;;;;;5116336;28;20187;-82
2021/07/04 03:20:13;;;;;;;2.10;1.85;;;;;;;;;;5115076;28;20666;-82
2021/07/04 03:22:41;;;;;;;1.52;1.42;;;;;;;;;;5114371;28;20228;-83
2021/07/04 03:25:10;;;;;;;1.50;1.42;;;;;;;;;;5114131;28;20196;-83
2021/07/04 03:27:38;;;;;;;1.60;1.50;;;;;;;;;;5114637;28;20195;-83
2021/07/04 03:30:08;;;;;;;1.13;1.13;;;;;;;;;;5114169;28;20184;-83
2021/07/04 03:32:36;;;;;;;1.60;1.50;;;;;;;;;;5114322;28;20216;-82
2021/07/04 03:35:05;;;;;;;1.60;1.50;;;;;;;;;;5114305;28;20195;-83
2021/07/04 03:37:35;;;;;;;1.50;1.40;;;;;;;;;;5114397;28;20196;-82
2021/07/04 03:40:04;;;;;;;1.30;1.20;;;;;;;;;;5113232;28;20193;-82
2021/07/04 03:42:32;;;;;;;1.35;1.30;;;;;;;;;;5113303;28;20227;-83
2021/07/04 03:44:59;;;;;;;2.60;2.42;;;;;;;;;;5114007;28;20567;-83
2021/07/04 03:47:26;;;;;;;2.38;1.73;;;;;;;;;;5113406;28;20199;-83
2021/07/04 03:49:55;;;;;;;2.78;2.58;;;;;;;;;;5113953;28;20184;-83
2021/07/04 03:52:22;;;;;;;2.70;2.50;;;;;;;;;;5114138;28;20218;-82
2021/07/04 03:54:51;;;;;;;3.22;2.70;;;;;;;;;;5113625;28;20203;-82
2021/07/04 03:57:24;;;;;;;2.55;2.35;;;;;;;;;;5113789;28;20188;-82
2021/07/04 03:59:53;;;;;;;2.00;1.83;;;;;;;;;;5113732;28;20202;-82
2021/07/04 04:02:20;;;;;;;2.15;1.98;;;;;;;;;;5113368;28;20592;-83
2021/07/04 04:04:48;;;;;;;1.58;1.48;;;;;;;;;;5113612;28;20194;-83
2021/07/04 04:07:16;;;;;;;1.75;1.65;;;;;;;;;;5113203;28;20207;-83
2021/07/04 04:09:46;;;;;;;3.25;1.80;;;;;;;;;;5113375;28;20657;-83
2021/07/04 04:12:16;;;;;;;2.30;2.10;;;;;;;;;;5113299;28;20302;-83
2021/07/04 04:14:43;;;;;;;1.90;1.80;;;;;;;;;;5114026;28;20184;-83
2021/07/04 04:17:11;;;;;;;2.50;2.30;;;;;;;;;;5114425;28;20188;-83
2021/07/04 04:19:38;;;;;;;1.90;1.80;;;;;;;;;;5114703;28;20188;-84
2021/07/04 04:22:06;;;;;;;1.80;1.70;;;;;;;;;;5114135;28;20235;-83
2021/07/04 04:24:33;;;;;;;2.00;1.90;;;;;;;;;;5114854;28;20187;-82
2021/07/04 04:27:01;;;;;;;2.30;2.10;;;;;;;;;;5114232;28;20184;-84
2021/07/04 04:29:30;;;;;;;1.73;1.63;;;;;;;;;;5113870;28;20176;-83
2021/07/04 04:31:57;;;;;;;2.00;1.90;;;;;;;;;;5113010;28;20223;-83
2021/07/04 04:34:25;;;;;;;1.77;1.65;;;;;;;;;;5113403;28;20184;-83
2021/07/04 04:36:52;;;;;;;1.65;1.52;;;;;;;;;;5112976;28;20180;-83
2021/07/04 04:39:20;;;;;;;2.80;2.60;;;;;;;;;;5112403;28;20202;-83
2021/07/04 04:41:48;;;;;;;1.92;1.83;;;;;;;;;;5113109;28;20614;-83
2021/07/04 04:44:16;;;;;;;1.80;1.70;;;;;;;;;;5112952;28;20203;-83
2021/07/04 04:46:45;;;;;;;1.60;1.50;;;;;;;;;;5113101;28;20195;-83
2021/07/04 04:49:12;;;;;;;1.80;1.70;;;;;;;;;;5112758;28;20215;-83
2021/07/04 04:51:41;;;;;;;2.05;1.88;;;;;;;;;;5112511;28;20223;-83
2021/07/04 04:54:09;;;;;;;2.13;2.03;;;;;;;;;;5112832;28;20187;-83
2021/07/04 04:56:37;;;;;;;2.67;2.47;;;;;;;;;;5112696;28;20667;-83
2021/07/04 04:59:05;;;;;;;2.28;2.10;;;;;;;;;;5112836;28;20198;-84
2021/07/04 05:01:33;;;;;;;2.00;1.90;;;;;;;;;;5114768;28;20208;-84
2021/07/04 05:04:01;;;;;;;1.95;1.83;;;;;;;;;;5114813;28;20208;-84
2021/07/04 05:06:29;;;;;;;1.83;1.73;;;;;;;;;;5114454;28;20210;-84
2021/07/04 05:08:56;;;;;;;1.73;1.63;;;;;;;;;;5115019;28;20206;-84
2021/07/04 05:11:24;;;;;;;1.42;1.33;;;;;;;;;;5114945;28;20220;-84
2021/07/04 05:13:51;;;;;;;1.25;1.25;;;;;;;;;;5114160;28;20577;-84
2021/07/04 05:16:19;;;;;;;1.52;1.42;;;;;;;;;;5112775;28;20190;-84
2021/07/04 05:18:47;;;;;;;1.77;1.67;;;;;;;;;;5112694;28;20180;-82
2021/07/04 05:21:15;;;;;;;1.75;1.65;;;;;;;;;;5112545;28;20231;-83
2021/07/04 05:23:43;;;;;;;2.03;1.92;;;;;;;;;;5112231;28;20227;-83
2021/07/04 05:26:10;;;;;;;2.00;1.90;;;;;;;;;;5112579;28;20188;-83
2021/07/04 05:28:39;;;;;;;1.50;1.40;;;;;;;;;;5112406;28;20203;-84
2021/07/04 05:31:07;;;;;;;2.00;1.90;;;;;;;;;;5115492;28;20219;-84
2021/07/04 05:33:34;;;;;;;2.40;2.20;;;;;;;;;;5115604;28;20243;-84
2021/07/04 05:36:02;;;;;;;2.10;2.00;;;;;;;;;;5115983;28;20634;-83
2021/07/04 05:38:33;;;;;;;2.30;2.10;;;;;;;;;;5115356;28;20180;-84
2021/07/04 05:41:00;;;;;;;2.15;2.05;;;;;;;;;;5115638;28;20230;-83
2021/07/04 05:43:28;;;;;;;3.00;2.75;;;;;;;;;;5115739;28;20204;-85
2021/07/04 05:45:55;;;;;;;3.25;2.95;;;;;;;;;;5113363;28;20208;-83
2021/07/04 05:48:23;;;;;;;2.67;2.47;;;;;;;;;;5112568;28;20191;-83
2021/07/04 05:50:50;;;;;;;2.78;2.58;;;;;;;;;;5112349;28;20230;-84
2021/07/04 05:53:18;;;;;;;3.08;2.88;;;;;;;;;;5112524;28;20200;-83
2021/07/04 05:55:47;;;;;;;3.67;3.38;;;;;;;;;;5112029;28;20203;-83
2021/07/04 05:58:14;;;;;;;4.13;3.80;;;;;;;;;;5111956;28;20784;-82
2021/07/04 06:00:42;;;;;;;3.40;3.20;;;;;;;;;;5112168;28;20236;-82
2021/07/04 06:03:09;;;;;;;3.92;3.63;;;;;;;;;;5113803;28;20212;-83
2021/07/04 06:05:38;;;;;;;3.53;3.22;;;;;;;;;;5115475;28;20653;-83
2021/07/04 06:08:06;;;;;;;3.30;3.10;;;;;;;;;;5115616;28;20196;-83
2021/07/04 06:10:33;;;;;;;2.90;2.70;;;;;;;;;;5116056;28;20184;-83
2021/07/04 06:13:02;;;;;;;3.65;3.35;;;;;;;;;;5115739;28;20199;-83
2021/07/04 06:15:31;;;;;;;3.33;3.03;;;;;;;;;;5115980;28;20270;-83
2021/07/04 06:17:58;;;;;;;3.10;2.88;;;;;;;;;;5117271;28;20245;-83
2021/07/04 06:20:26;;;;;;;2.70;2.50;;;;;;;;;;5117735;28;20207;-83
2021/07/04 06:22:55;;;;;;;3.10;2.90;;;;;;;;;;5117366;28;20309;-83
2021/07/04 06:25:23;;;;;;;3.85;3.55;;;;;;;;;;5116777;28;20572;-83
2021/07/04 06:27:51;;;;;;;3.58;3.28;;;;;;;;;;5118351;28;20204;-83
2021/07/04 06:30:21;;;;;;;3.78;3.35;;;;;;;;;;5115726;28;20199;-83
2021/07/04 06:32:48;;;;;;;2.78;2.58;;;;;;;;;;5115334;28;20184;-83
2021/07/04 06:35:17;;;;;;;3.35;3.10;;;;;;;;;;5115226;28;20184;-83
2021/07/04 06:37:45;;;;;;;3.20;3.00;;;;;;;;;;5115213;28;20206;-83
2021/07/04 06:40:14;;;;;;;2.80;2.60;;;;;;;;;;5115198;28;20180;-83
2021/07/04 06:42:42;;;;;;;2.05;1.92;;;;;;;;;;5115160;28;20184;-83
2021/07/04 06:45:11;;;;;;;2.60;2.40;;;;;;;;;;5114227;28;20668;-83
2021/07/04 06:47:40;;;;;;;2.83;2.63;;;;;;;;;;5114982;28;20203;-83
2021/07/04 06:50:10;;;;;;;2.95;2.75;;;;;;;;;;5115034;28;20190;-83
2021/07/04 06:52:38;;;;;;;3.15;2.85;;;;;;;;;;5114773;28;20222;-83
2021/07/04 06:55:07;;;;;;;2.67;2.47;;;;;;;;;;5114874;28;20195;-82
2021/07/04 06:57:35;;;;;;;2.88;2.67;;;;;;;;;;5114890;28;20195;-83
2021/07/04 07:00:08;;;;;;;2.47;2.28;;;;;;;;;;5114811;28;20191;-83
2021/07/04 07:02:38;;;;;;;2.78;2.58;;;;;;;;;;5114674;28;20226;-83
2021/07/04 07:05:08;;;;;;;2.55;2.35;;;;;;;;;;5114558;28;20208;-84
2021/07/04 07:07:36;;;;;;;2.72;2.60;;;;;;;;;;5114503;28;20654;-83
2021/07/04 07:10:06;;;;;;;2.70;2.50;;;;;;;;;;5114842;28;20187;-83
2021/07/04 07:12:33;;;;;;;2.88;2.67;;;;;;;;;;5114174;28;20215;-83
2021/07/04 07:15:01;;;;;;;2.60;2.40;;;;;;;;;;5114450;28;20245;-83
2021/07/04 07:17:28;;;;;;;2.92;2.72;;;;;;;;;;5114768;28;20195;-83
2021/07/04 07:19:57;;;;;;;2.72;2.53;;;;;;;;;;5114671;28;20215;-83
2021/07/04 07:22:24;;;;;;;3.15;2.95;;;;;;;;;;5114093;28;20258;-83
2021/07/04 07:24:52;;;;;;;3.03;2.83;;;;;;;;;;5114334;28;20208;-83
2021/07/04 07:27:19;;;;;;;4.00;3.63;;;;;;;;;;5114139;28;20630;-83
2021/07/04 07:29:47;;;;;;;3.63;3.33;;;;;;;;;;5114271;28;20196;-84
2021/07/04 07:32:15;;;;;;;2.58;2.38;;;;;;;;;;5114038;28;20592;-84
2021/07/04 07:34:43;;;;;;;3.05;2.85;;;;;;;;;;5113727;28;20203;-84
2021/07/04 07:37:13;;;;;;;3.50;3.20;;;;;;;;;;5114093;28;20203;-84
2021/07/04 07:39:41;;;;;;;4.00;3.70;;;;;;;;;;5114102;28;20233;-84
2021/07/04 07:42:08;;;;;;;2.78;2.58;;;;;;;;;;5113859;28;20223;-83
2021/07/04 07:44:36;;;;;;;3.55;3.25;;;;;;;;;;5113628;28;20691;-83
2021/07/04 07:47:04;;;;;;;3.72;3.42;;;;;;;;;;5114055;28;20184;-84
2021/07/04 07:49:31;;;;;;;3.80;3.38;;;;;;;;;;5113693;28;20590;-83
2021/07/04 07:52:00;;;;;;;3.67;3.38;;;;;;;;;;5113688;28;20215;-83
2021/07/04 07:54:30;;;;;;;4.07;3.78;;;;;;;;;;5113745;28;20191;-83
2021/07/04 07:57:01;;;;;;;4.00;3.70;;;;;;;;;;5113951;28;20283;-83
2021/07/04 07:59:29;;;;;;;4.20;3.80;;;;;;;;;;5114013;28;20269;-84
2021/07/04 08:01:57;;;;;;;4.07;3.78;;;;;;;;;;5113599;28;20219;-84
2021/07/04 08:04:25;;;;;;;3.30;3.00;;;;;;;;;;5113295;28;20219;-83
2021/07/04 08:06:52;;;;;;;4.28;3.97;;;;;;;;;;5113855;28;20188;-83
2021/07/04 08:09:20;;;;;;;4.97;4.57;;;;;;;;;;5113960;28;20187;-84
2021/07/04 08:11:49;;;;;;;4.72;4.32;;;;;;;;;;5113729;28;20226;-84
2021/07/04 08:14:16;;;;;;;3.58;3.28;;;;;;;;;;5113232;28;20652;-83
2021/07/04 08:16:44;;;;;;;3.40;3.20;;;;;;;;;;5113209;28;20210;-85
2021/07/04 08:19:11;;;;;;;3.45;3.25;;;;;;;;;;5113541;28;20180;-84
2021/07/04 08:21:39;;;;;;;4.03;3.72;;;;;;;;;;5112617;28;20709;-84
2021/07/04 08:24:07;;;;;;;4.45;4.15;;;;;;;;;;5105471;28;20243;-85
2021/07/04 08:26:34;;;;;;;3.53;3.30;;;;;;;;;;5092521;28;20689;-83
2021/07/04 08:29:03;;;;;;;4.60;4.30;;;;;;;;;;5093245;28;20189;-84
2021/07/04 08:31:31;;;;;;;5.68;5.18;;;;;;;;;;5092979;28;20299;-84
2021/07/04 08:33:59;;;;;;;4.85;3.97;;;;;;;;;;5092583;28;20222;-84
2021/07/04 08:36:30;;;;;;;3.72;3.42;;;;;;;;;;5092990;28;20196;-84
2021/07/04 08:38:58;;;;;;;2.88;2.67;;;;;;;;;;5092810;28;20212;-84
2021/07/04 08:41:25;;;;;;;4.22;3.92;;;;;;;;;;5092631;28;20697;-84
2021/07/04 08:43:53;;;;;;;3.85;3.55;;;;;;;;;;5092791;28;20286;-84
2021/07/04 08:46:22;;;;;;;3.30;3.10;;;;;;;;;;5092171;28;20275;-84
2021/07/04 08:48:49;;;;;;;3.47;3.17;;;;;;;;;;5092644;28;20662;-84
2021/07/04 08:51:17;;;;;;;4.18;3.78;;;;;;;;;;5092372;28;20223;-85
2021/07/04 08:53:44;;;;;;;3.60;3.40;;;;;;;;;;5092388;28;20196;-83
2021/07/04 08:56:11;;;;;;;3.55;3.35;;;;;;;;;;5092712;28;20200;-83
2021/07/04 08:58:39;;;;;;;3.30;3.10;;;;;;;;;;5091917;28;20191;-84
2021/07/04 09:01:16;;;;;;;4.53;4.15;;;;;;;;;;5091810;28;20303;-83
2021/07/04 09:03:48;;;;;;;3.92;3.63;;;;;;;;;;5092346;28;20194;-83
2021/07/04 09:06:35;;;;;;;3.15;2.85;;;;;;;;;;5113086;28;20200;-84
2021/07/04 09:09:24;;;;;;;4.35;4.03;;;;;;;;;;5112998;28;20253;-83
2021/07/04 09:12:11;;;;;;;3.65;3.35;;;;;;;;;;5113631;28;20220;-84
2021/07/04 09:14:41;;;;;;;3.53;3.22;;;;;;;;;;5115225;28;20180;-84
2021/07/04 09:17:11;;;;;;;3.17;2.97;;;;;;;;;;5115268;28;20271;-84
2021/07/04 09:19:41;;;;;;;4.43;4.03;;;;;;;;;;5114273;28;20200;-83
2021/07/04 09:22:11;;;;;;;4.30;3.92;;;;;;;;;;5112703;28;20236;-83
2021/07/04 09:24:42;;;;;;;4.25;3.80;;;;;;;;;;5112454;28;20177;-84
2021/07/04 09:27:12;;;;;;;3.90;3.60;;;;;;;;;;5112738;28;20247;-84
2021/07/04 09:29:50;;;;;;;3.67;3.47;;;;;;;;;;5112778;28;20630;-83
2021/07/04 09:32:20;;;;;;;3.17;2.90;;;;;;;;;;5112112;28;20219;-83
2021/07/04 09:35:01;;;;;;;3.10;2.90;;;;;;;;;;5097106;28;20274;-84
2021/07/04 09:37:36;;;;;;;3.17;2.97;;;;;;;;;;5114056;28;20202;-83
2021/07/04 09:40:12;;;;;;;3.85;3.55;;;;;;;;;;5116664;28;20195;-83
2021/07/04 09:43:05;;;;;;;2.80;2.60;;;;;;;;;;5117430;28;20184;-84
2021/07/04 09:45:53;;;;;;;3.28;3.08;;;;;;;;;;5116900;28;20223;-84
2021/07/04 09:48:35;;;;;;;3.13;2.92;;;;;;;;;;5116653;28;20195;-84
2021/07/04 09:51:10;;;;;;;3.53;3.22;;;;;;;;;;5102051;28;20219;-84
2021/07/04 09:53:40;;;;;;;2.95;2.75;;;;;;;;;;5096505;28;20530;-84
2021/07/04 09:56:12;;;;;;;3.22;3.03;;;;;;;;;;5096302;28;20228;-84
2021/07/04 09:58:41;;;;;;;3.08;2.88;;;;;;;;;;5096280;28;20581;-83
2021/07/04 10:01:08;;;;;;;3.30;3.08;;;;;;;;;;5095962;28;20216;-83
2021/07/04 10:03:42;;;;;;;2.67;2.47;;;;;;;;;;5096289;28;20624;-83
2021/07/04 10:06:12;;;;;;;2.00;1.90;;;;;;;;;;5097120;28;20231;-83
2021/07/04 10:08:41;;;;;;;2.90;2.70;;;;;;;;;;5096271;28;20249;-84
2021/07/04 10:11:11;;;;;;;2.95;2.75;;;;;;;;;;5095989;28;20226;-84
2021/07/04 10:13:40;;;;;;;3.22;2.95;;;;;;;;;;5097120;28;20184;-85
2021/07/04 10:16:11;;;;;;;3.53;3.33;;;;;;;;;;5098529;28;20188;-84
2021/07/04 10:18:40;;;;;;;3.55;2.80;;;;;;;;;;5115073;28;20183;-84
2021/07/04 10:21:08;;;;;;;3.45;3.13;;;;;;;;;;5115374;28;20778;-84
2021/07/04 10:23:37;;;;;;;3.42;3.13;;;;;;;;;;5115768;28;20206;-84
2021/07/04 10:26:05;;;;;;;2.97;2.78;;;;;;;;;;5115986;28;20670;-83
2021/07/04 10:28:35;;;;;;;3.50;3.20;;;;;;;;;;5116069;28;20188;-84
2021/07/04 10:31:04;;;;;;;2.85;2.63;;;;;;;;;;5115947;28;20229;-83
2021/07/04 10:33:34;;;;;;;3.33;3.13;;;;;;;;;;5114622;28;20187;-83
2021/07/04 10:36:08;;;;;;;3.15;2.95;;;;;;;;;;5115731;28;20192;-83
2021/07/04 10:38:45;;;;;;;3.10;2.90;;;;;;;;;;5116060;28;20183;-84
2021/07/04 10:41:15;;;;;;;3.90;3.60;;;;;;;;;;5095740;28;20216;-83
2021/07/04 10:44:09;;;;;;;3.95;3.65;;;;;;;;;;5094404;28;20195;-83
2021/07/04 10:47:07;;;;;;;2.22;2.13;;;;;;;;;;5094415;28;20228;-84
2021/07/04 10:49:42;;;;;;;3.47;3.28;;;;;;;;;;5094373;28;20283;-84
2021/07/04 10:52:19;;;;;;;3.70;3.45;;;;;;;;;;5096157;28;20709;-84
2021/07/04 10:54:52;;;;;;;2.78;2.58;;;;;;;;;;5095307;28;20226;-83
2021/07/04 10:57:25;;;;;;;2.85;2.65;;;;;;;;;;5095090;28;20553;-83
2021/07/04 11:00:20;;;;;;;2.30;2.20;;;;;;;;;;5095999;28;20246;-84
2021/07/04 11:02:54;;;;;;;3.17;2.97;;;;;;;;;;5095087;28;20214;-84
2021/07/04 11:05:57;;;;;;;2.97;2.78;;;;;;;;;;5094862;28;20303;-84
2021/07/04 11:08:29;;;;;;;2.85;2.65;;;;;;;;;;5089492;28;20207;-84
2021/07/04 11:11:09;;;;;;;2.97;2.78;;;;;;;;;;5095297;28;20689;-83
2021/07/04 11:13:45;;;;;;;2.00;1.90;;;;;;;;;;5094745;28;20184;-84
2021/07/04 11:16:24;;;;;;;2.38;2.28;;;;;;;;;;5094744;28;20618;-83
2021/07/04 11:18:57;;;;;;;3.50;3.30;;;;;;;;;;5094760;28;20229;-84
2021/07/04 11:21:47;;;;;;;2.67;2.47;;;;;;;;;;5053244;28;20235;-84
2021/07/04 11:24:16;;;;;;;2.80;2.60;;;;;;;;;;4992960;28;20215;-83
2021/07/04 11:27:24;;;;;;;2.40;2.20;;;;;;;;;;4993399;28;20261;-84
2021/07/04 11:30:28;;;;;;;2.58;2.42;;;;;;;;;;5002593;28;20209;-84
2021/07/04 11:33:31;;;;;;;2.38;2.28;;;;;;;;;;4994585;28;20249;-84
2021/07/04 11:36:03;;;;;;;2.22;2.13;;;;;;;;;;5012205;28;20191;-84
2021/07/04 11:38:33;;;;;;;2.70;2.50;;;;;;;;;;5011693;28;20392;-84
2021/07/04 11:41:01;;;;;;;2.90;2.70;;;;;;;;;;5011648;28;20229;-83
2021/07/04 11:43:31;;;;;;;3.10;2.90;;;;;;;;;;5011848;28;20184;-83
2021/07/04 11:46:00;;;;;;;2.30;2.20;;;;;;;;;;5004483;28;20556;-84
2021/07/04 11:48:55;;;;;;;2.50;2.40;;;;;;;;;;4992045;28;20195;-83
2021/07/04 11:51:42;;;;;;;2.28;2.17;;;;;;;;;;5007145;28;20223;-83
2021/07/04 11:54:12;;;;;;;3.20;3.00;;;;;;;;;;5009802;28;20285;-85
2021/07/04 11:56:42;;;;;;;2.85;2.65;;;;;;;;;;5011298;28;20200;-84
2021/07/04 11:59:18;;;;;;;3.15;2.95;;;;;;;;;;5010860;28;20640;-85
2021/07/04 12:01:50;;;;;;;2.53;2.33;;;;;;;;;;5010034;28;20268;-84
2021/07/04 12:04:19;;;;;;;2.47;2.38;;;;;;;;;;5011224;28;20192;-85
2021/07/04 12:06:56;;;;;;;2.75;2.55;;;;;;;;;;5011208;28;20214;-84
2021/07/04 12:09:43;;;;;;;2.30;2.20;;;;;;;;;;5011978;28;20195;-84
2021/07/04 12:12:18;;;;;;;2.67;2.47;;;;;;;;;;5011150;28;20245;-83
2021/07/04 12:14:48;;;;;;;2.60;2.50;;;;;;;;;;5011243;28;20183;-85
2021/07/04 12:17:30;;;;;;;2.47;2.33;;;;;;;;;;4993889;28;20198;-84
2021/07/04 12:20:17;;;;;;;2.60;2.50;;;;;;;;;;4991691;28;20203;-85
2021/07/04 12:22:52;;;;;;;2.03;1.92;;;;;;;;;;4991937;28;20257;-84
2021/07/04 12:25:22;;;;;;;2.30;2.20;;;;;;;;;;4990773;28;20592;-87
2021/07/04 12:27:52;;;;;;;3.53;3.33;;;;;;;;;;5003345;28;20211;-85
2021/07/04 12:30:25;;;;;;;2.85;2.65;;;;;;;;;;5030668;28;20254;-85
2021/07/04 12:32:58;;;;;;;2.35;2.25;;;;;;;;;;5030537;28;20217;-84
2021/07/04 12:35:30;;;;;;;2.42;2.25;;;;;;;;;;5030569;28;20186;-85
2021/07/04 12:38:03;;;;;;;2.70;2.50;;;;;;;;;;5024774;28;20191;-84
2021/07/04 12:40:33;;;;;;;2.53;2.33;;;;;;;;;;5010162;28;20195;-83
2021/07/04 12:43:10;;;;;;;2.78;2.58;;;;;;;;;;4993601;28;20199;-84
2021/07/04 12:45:44;;;;;;;2.53;2.42;;;;;;;;;;4990386;28;20188;-84
2021/07/04 12:48:12;;;;;;;2.95;2.75;;;;;;;;;;4998087;28;20198;-84
2021/07/04 12:50:44;;;;;;;2.25;2.15;;;;;;;;;;4999331;28;20716;-85
2021/07/04 12:53:12;;;;;;;2.20;2.10;;;;;;;;;;4990541;28;20210;-84
2021/07/04 12:55:47;;;;;;;2.10;2.00;;;;;;;;;;5008501;28;20657;-85
2021/07/04 12:58:33;;;;;;;2.17;2.08;;;;;;;;;;5009787;28;20187;-84
2021/07/04 13:01:20;;;;;;;1.70;1.60;;;;;;;;;;5009711;28;20233;-85
2021/07/04 13:03:52;;;;;;;1.80;1.70;;;;;;;;;;4989877;28;20665;-86
2021/07/04 13:06:42;;;;;;;2.38;2.28;;;;;;;;;;5001056;28;20206;-85
2021/07/04 13:09:13;;;;;;;2.20;2.10;;;;;;;;;;5013513;28;20207;-85
2021/07/04 13:11:43;;;;;;;1.83;1.73;;;;;;;;;;5010713;28;20280;-85
2021/07/04 13:14:13;;;;;;;2.00;1.90;;;;;;;;;;5010928;28;20227;-85
2021/07/04 13:16:56;;;;;;;1.65;1.55;;;;;;;;;;5013310;28;20198;-86
2021/07/04 13:19:25;;;;;;;2.28;2.17;;;;;;;;;;4995540;28;20670;-86
2021/07/04 13:21:54;;;;;;;1.80;1.70;;;;;;;;;;5054967;28;20720;-86
2021/07/04 13:24:28;;;;;;;2.67;2.47;;;;;;;;;;5096847;28;20271;-85
2021/07/04 13:26:58;;;;;;;3.05;2.65;;;;;;;;;;5096706;28;20198;-85
2021/07/04 13:29:28;;;;;;;3.08;2.83;;;;;;;;;;5116033;28;20392;-84
2021/07/04 13:32:18;;;;;;;2.35;2.15;;;;;;;;;;5118350;28;20311;-84
2021/07/04 13:35:08;;;;;;;2.30;2.10;;;;;;;;;;5117305;28;20686;-82
2021/07/04 13:37:36;;;;;;;2.03;1.92;;;;;;;;;;5114761;28;20255;-84
2021/07/04 13:40:11;;;;;;;2.30;2.20;;;;;;;;;;5097366;28;20187;-84
2021/07/04 13:42:41;;;;;;;2.10;1.98;;;;;;;;;;5096789;28;20215;-85
2021/07/04 13:45:30;;;;;;;2.60;2.40;;;;;;;;;;5110169;28;20191;-84
2021/07/04 13:48:01;;;;;;;1.80;1.70;;;;;;;;;;5116860;28;20215;-85
2021/07/04 13:50:30;;;;;;;1.95;1.85;;;;;;;;;;5116790;28;20190;-83
2021/07/04 13:52:58;;;;;;;1.70;1.60;;;;;;;;;;5115703;28;20195;-84
2021/07/04 13:55:26;;;;;;;1.75;1.65;;;;;;;;;;5115027;28;20184;-83
2021/07/04 13:57:57;;;;;;;1.98;1.80;;;;;;;;;;5116592;28;20274;-84
2021/07/04 14:00:24;;;;;;;1.70;1.60;;;;;;;;;;5116463;28;20194;-84
2021/07/04 14:02:52;;;;;;;2.10;2.00;;;;;;;;;;5116248;28;20180;-83
2021/07/04 14:05:21;;;;;;;1.90;1.80;;;;;;;;;;5116002;28;20211;-83
2021/07/04 14:07:48;;;;;;;2.05;1.95;;;;;;;;;;5116283;28;20215;-83
2021/07/04 14:10:17;;;;;;;2.33;2.13;;;;;;;;;;5099244;28;20705;-83
2021/07/04 14:12:45;;;;;;;2.13;2.03;;;;;;;;;;5115232;28;20675;-83
2021/07/04 14:15:14;;;;;;;2.38;2.28;;;;;;;;;;5115792;28;20184;-83
2021/07/04 14:17:42;;;;;;;1.58;1.48;;;;;;;;;;5115906;28;20192;-84
2021/07/04 14:20:17;;;;;;;1.75;1.60;;;;;;;;;;5115112;28;20187;-83
2021/07/04 14:22:46;;;;;;;1.70;1.60;;;;;;;;;;5114956;28;20230;-84
2021/07/04 14:25:18;;;;;;;1.30;1.30;;;;;;;;;;5096998;28;20207;-85
2021/07/04 14:27:46;;;;;;;1.27;1.17;;;;;;;;;;5099641;28;20203;-84
2021/07/04 14:30:18;;;;;;;1.50;1.40;;;;;;;;;;5115812;28;20188;-85
2021/07/04 14:32:47;;;;;;;1.45;1.35;;;;;;;;;;5116017;28;20195;-84
2021/07/04 14:35:18;;;;;;;1.80;1.70;;;;;;;;;;5115691;28;20214;-85
2021/07/04 14:37:47;;;;;;;1.50;1.40;;;;;;;;;;5114844;28;20631;-84
2021/07/04 14:40:17;;;;;;;1.50;1.40;;;;;;;;;;5109700;28;20192;-85
2021/07/04 14:42:45;;;;;;;1.60;1.50;;;;;;;;;;5115922;28;20191;-85
2021/07/04 14:45:13;;;;;;;1.30;1.30;;;;;;;;;;5116282;28;20196;-85
2021/07/04 14:47:41;;;;;;;1.20;1.20;;;;;;;;;;5115118;28;20199;-83
2021/07/04 14:50:11;;;;;;;1.27;1.27;;;;;;;;;;5115455;28;20192;-83
2021/07/04 14:52:40;;;;;;;1.70;1.60;;;;;;;;;;5115919;28;20220;-84
2021/07/04 14:55:17;;;;;;;1.67;1.58;;;;;;;;;;5116443;28;20188;-84
2021/07/04 14:57:45;;;;;;;1.70;1.60;;;;;;;;;;5116121;28;20278;-83
2021/07/04 15:00:14;;;;;;;2.05;1.95;;;;;;;;;;5114059;28;20187;-83
2021/07/04 15:02:42;;;;;;;1.50;1.40;;;;;;;;;;5115525;28;20624;-84
2021/07/04 15:05:13;;;;;;;1.50;1.40;;;;;;;;;;5097364;28;20203;-84